createdAt,value
2022-08-09T00:01:55.970Z,22.41
2022-08-09T00:04:34.238Z,22.42
2022-08-09T00:07:07.790Z,22.45
2022-08-09T00:09:41.646Z,22.44
2022-08-09T00:12:22.491Z,22.46
2022-08-09T00:14:56.929Z,22.45
2022-08-09T00:18:07.675Z,22.47
2022-08-09T00:20:18.051Z,22.47
2022-08-09T00:22:49.166Z,22.48
2022-08-09T00:25:23.027Z,22.48
2022-08-09T00:27:54.229Z,22.46
2022-08-09T00:30:27.069Z,22.48
2022-08-09T00:32:57.127Z,22.48
2022-08-09T00:35:29.781Z,22.47
2022-08-09T00:38:15.126Z,22.47
2022-08-09T00:40:53.079Z,22.46
2022-08-09T00:44:16.199Z,22.47
2022-08-09T00:46:44.169Z,22.49
2022-08-09T00:49:05.314Z,22.52
2022-08-09T00:51:54.111Z,22.51
2022-08-09T00:54:31.470Z,22.54
2022-08-09T00:57:08.958Z,22.55
2022-08-09T00:59:52.423Z,22.56
2022-08-09T01:02:25.215Z,22.59
2022-08-09T01:05:50.777Z,22.59
2022-08-09T01:08:48.982Z,22.60
2022-08-09T01:11:53.257Z,22.61
2022-08-09T01:15:06.000Z,22.61
2022-08-09T01:18:09.470Z,22.65
2022-08-09T01:21:02.777Z,22.68
2022-08-09T01:24:00.891Z,22.67
2022-08-09T01:26:52.945Z,22.66
2022-08-09T01:29:55.942Z,22.66
2022-08-09T01:32:43.745Z,22.65
2022-08-09T01:35:44.929Z,22.68
2022-08-09T01:38:23.455Z,22.66
2022-08-09T01:41:05.040Z,22.69
2022-08-09T01:43:41.786Z,22.68
2022-08-09T01:46:34.636Z,22.69
2022-08-09T01:49:14.807Z,22.69
2022-08-09T01:51:59.156Z,22.72
2022-08-09T01:55:03.272Z,22.74
2022-08-09T01:57:46.100Z,22.78
2022-08-09T02:00:35.604Z,22.79
2022-08-09T02:03:13.587Z,22.82
2022-08-09T02:06:03.285Z,22.87
2022-08-09T02:08:58.847Z,22.89
2022-08-09T02:11:42.071Z,22.90
2022-08-09T02:14:25.557Z,22.95
2022-08-09T02:17:14.569Z,22.95
2022-08-09T02:19:48.300Z,23.00
2022-08-09T02:22:53.361Z,23.02
2022-08-09T02:25:29.178Z,23.00
2022-08-09T02:28:05.344Z,23.01
2022-08-09T02:30:53.299Z,23.02
2022-08-09T02:33:38.409Z,23.06
2022-08-09T02:36:32.563Z,23.10
2022-08-09T02:39:04.870Z,23.15
2022-08-09T02:41:52.441Z,23.20
2022-08-09T02:44:30.021Z,23.24
2022-08-09T02:47:05.344Z,23.23
2022-08-09T02:49:41.333Z,23.31
2022-08-09T02:52:17.203Z,23.32
2022-08-09T02:54:54.523Z,23.32
2022-08-09T02:57:28.047Z,23.38
2022-08-09T03:00:21.257Z,23.44
2022-08-09T03:03:00.257Z,23.52
2022-08-09T03:05:34.930Z,23.57
2022-08-09T03:08:07.164Z,23.58
2022-08-09T03:10:39.102Z,23.66
2022-08-09T03:13:16.913Z,23.73
2022-08-09T03:16:05.847Z,23.75
2022-08-09T03:19:14.500Z,23.71
2022-08-09T03:22:12.142Z,23.76
2022-08-09T03:25:26.679Z,23.79
2022-08-09T03:28:18.288Z,23.76
2022-08-09T03:30:53.556Z,23.72
2022-08-09T03:34:04.666Z,23.80
2022-08-09T03:39:56.893Z,23.83
2022-08-09T03:42:30.797Z,23.89
2022-08-09T03:45:03.976Z,23.94
2022-08-09T03:47:36.596Z,23.99
2022-08-09T03:50:11.769Z,24.02
2022-08-09T03:52:46.651Z,24.03
2022-08-09T03:55:20.321Z,24.10
2022-08-09T03:57:57.537Z,24.13
2022-08-09T04:00:38.359Z,24.18
2022-08-09T04:03:11.723Z,24.19
2022-08-09T04:05:47.045Z,24.22
2022-08-09T04:08:19.646Z,24.28
2022-08-09T04:11:01.570Z,24.28
2022-08-09T04:14:37.327Z,24.29
2022-08-09T04:16:22.949Z,24.31
2022-08-09T04:18:53.354Z,24.33
2022-08-09T04:21:23.960Z,24.37
2022-08-09T04:23:57.767Z,24.39
2022-08-09T04:26:35.225Z,24.45
2022-08-09T04:29:14.718Z,24.46
2022-08-09T04:31:47.280Z,24.47
2022-08-09T04:34:18.891Z,24.51
2022-08-09T04:37:00.689Z,24.54
2022-08-09T04:39:31.459Z,24.55
2022-08-09T04:42:02.798Z,24.58
2022-08-09T04:44:49.291Z,24.62
2022-08-09T04:47:19.677Z,24.66
2022-08-09T04:49:54.509Z,24.68
2022-08-09T04:52:28.041Z,24.71
2022-08-09T04:55:00.813Z,24.69
2022-08-09T04:57:58.301Z,24.70
2022-08-09T05:00:23.232Z,24.69
2022-08-09T05:02:53.905Z,24.73
2022-08-09T05:05:32.331Z,24.76
2022-08-09T05:08:15.277Z,24.74
2022-08-09T05:10:46.969Z,24.74
2022-08-09T05:13:21.376Z,24.75
2022-08-09T05:15:57.177Z,24.80
2022-08-09T05:18:37.643Z,24.82
2022-08-09T05:21:23.100Z,24.85
2022-08-09T05:24:02.078Z,24.88
2022-08-09T05:26:37.252Z,24.91
2022-08-09T05:29:31.225Z,24.93
2022-08-09T05:32:01.927Z,24.91
2022-08-09T05:34:34.233Z,24.97
2022-08-09T05:37:11.487Z,24.95
2022-08-09T05:39:44.620Z,25.04
2022-08-09T05:42:18.024Z,25.07
2022-08-09T05:44:55.872Z,25.15
2022-08-09T05:47:33.319Z,25.20
2022-08-09T05:50:31.775Z,25.20
2022-08-09T05:53:06.544Z,25.23
2022-08-09T05:55:53.134Z,25.25
2022-08-09T05:58:24.995Z,25.25
2022-08-09T06:01:00.808Z,25.26
2022-08-09T06:03:43.832Z,25.30
2022-08-09T06:06:17.354Z,25.35
2022-08-09T06:08:52.714Z,25.39
2022-08-09T06:11:24.450Z,25.42
2022-08-09T06:14:11.411Z,25.42
2022-08-09T06:16:42.036Z,25.45
2022-08-09T06:19:22.437Z,25.49
2022-08-09T06:21:58.729Z,25.53
2022-08-09T06:24:29.911Z,25.57
2022-08-09T06:27:01.739Z,25.58
2022-08-09T06:29:32.705Z,25.62
2022-08-09T06:33:00.184Z,25.64
2022-08-09T06:35:10.750Z,25.69
2022-08-09T06:37:53.291Z,25.72
2022-08-09T06:40:34.622Z,25.74
2022-08-09T06:43:07.649Z,25.74
2022-08-09T06:46:06.092Z,25.77
2022-08-09T06:48:31.365Z,25.82
2022-08-09T06:51:04.385Z,25.85
2022-08-09T06:53:38.505Z,25.85
2022-08-09T06:56:11.912Z,25.87
2022-08-09T07:00:56.083Z,25.91
2022-08-09T07:01:53.526Z,25.95
2022-08-09T07:04:27.145Z,25.97
2022-08-09T07:07:00.432Z,26.01
2022-08-09T07:09:55.252Z,26.03
2022-08-09T07:12:21.793Z,26.06
2022-08-09T07:16:39.058Z,26.09
2022-08-09T07:18:02.314Z,26.12
2022-08-09T07:20:33.398Z,26.17
2022-08-09T07:23:18.109Z,26.18
2022-08-09T07:26:02.489Z,26.25
2022-08-09T07:28:34.914Z,26.28
2022-08-09T07:31:06.898Z,26.29
2022-08-09T07:33:52.845Z,26.32
2022-08-09T07:36:26.331Z,26.35
2022-08-09T07:39:01.041Z,26.39
2022-08-09T07:41:38.943Z,26.41
2022-08-09T07:44:09.756Z,26.43
2022-08-09T07:46:42.117Z,26.43
2022-08-09T07:49:15.402Z,26.43
2022-08-09T07:52:06.168Z,26.45
2022-08-09T07:54:36.680Z,26.47
2022-08-09T07:57:11.765Z,26.50
2022-08-09T07:59:45.962Z,26.52
2022-08-09T08:02:29.342Z,26.55
2022-08-09T08:05:00.214Z,26.58
2022-08-09T08:08:43.125Z,26.59
2022-08-09T08:10:22.006Z,26.62
2022-08-09T08:12:57.870Z,26.62
2022-08-09T08:15:28.148Z,26.64
2022-08-09T08:17:59.068Z,26.66
2022-08-09T08:20:33.027Z,26.69
2022-08-09T08:23:17.173Z,26.69
2022-08-09T08:26:06.073Z,26.73
2022-08-09T08:28:37.220Z,26.75
2022-08-09T08:31:14.060Z,26.76
2022-08-09T08:33:52.490Z,26.76
2022-08-09T08:36:28.694Z,26.80
2022-08-09T08:39:01.490Z,26.86
2022-08-09T08:41:51.523Z,26.90
2022-08-09T08:44:29.353Z,26.95
2022-08-09T08:47:05.123Z,26.98
2022-08-09T08:49:47.822Z,27.06
2022-08-09T08:52:52.892Z,27.09
2022-08-09T08:55:15.334Z,27.13
2022-08-09T08:57:56.354Z,27.15
2022-08-09T09:00:34.216Z,27.18
2022-08-09T09:03:12.305Z,27.23
2022-08-09T09:05:58.497Z,27.26
2022-08-09T09:08:42.181Z,27.31
2022-08-09T09:11:17.689Z,27.33
2022-08-09T09:13:56.199Z,27.32
2022-08-09T09:16:34.356Z,27.28
2022-08-09T09:19:40.316Z,27.25
2022-08-09T09:22:26.605Z,27.20
2022-08-09T09:26:03.592Z,27.13
2022-08-09T09:28:03.740Z,27.09
2022-08-09T09:30:57.801Z,27.01
2022-08-09T09:33:44.301Z,27.04
2022-08-09T09:36:20.371Z,27.00
2022-08-09T09:38:59.418Z,26.97
2022-08-09T09:41:33.418Z,26.87
2022-08-09T09:44:31.558Z,26.78
2022-08-09T09:47:10.834Z,26.76
2022-08-09T09:50:07.767Z,26.73
2022-08-09T09:52:37.486Z,26.65
2022-08-09T09:55:31.404Z,26.59
2022-08-09T09:58:45.653Z,26.50
2022-08-09T10:01:36.810Z,26.45
2022-08-09T10:04:22.996Z,26.38
2022-08-09T10:07:11.739Z,26.33
2022-08-09T23:58:10.461Z,22.47
